Time;durP1;ratioP1;P1;durP2;ratioP2;P2;SDS_P1;SDS_P2;PMS_P1;PMS_P2;Temp;Humidity;BMP_temperature;BMP_pressure;BME280_temperature;BME280_humidity;BME280_pressure;Samples;Min_cycle;Max_cycle;Signal;HPM_P1;HPM_P2
2022/09/09 00:02:19;;;;;;;8.10;2.17;;;16.40;1.00;;;;;;4999202;28;20448;-79
2022/09/09 00:05:01;;;;;;;6.27;1.87;;;16.40;1.00;;;;;;5011807;28;20829;-77
2022/09/09 00:07:43;;;;;;;6.30;1.80;;;16.40;1.00;;;;;;5011551;28;20530;-78
2022/09/09 00:10:55;;;;;;;2.90;1.33;;;16.40;1.00;;;;;;5010605;28;20952;-77
2022/09/09 00:13:41;;;;;;;5.53;1.57;;;16.50;1.00;;;;;;4999728;28;20443;-77
2022/09/09 00:16:49;;;;;;;16.93;1.60;;;16.50;1.00;;;;;;5006660;28;20410;-77
2022/09/09 00:19:26;;;;;;;4.93;1.47;;;16.40;1.00;;;;;;5011949;28;20439;-78
2022/09/09 00:22:15;;;;;;;3.83;1.50;;;16.40;1.00;;;;;;4996042;28;20445;-77
2022/09/09 00:24:45;;;;;;;4.07;1.90;;;16.30;1.00;;;;;;5074400;28;20901;-77
2022/09/09 00:27:31;;;;;;;8.17;2.33;;;16.20;1.00;;;;;;5094933;28;20436;-77
2022/09/09 00:30:31;;;;;;;5.40;1.73;;;16.30;1.00;;;;;;5083997;28;20461;-78
2022/09/09 00:37:07;;;;;;;5.47;1.70;;;16.20;1.00;;;;;;5090449;28;20412;-86
2022/09/09 00:39:47;;;;;;;8.63;1.93;;;16.10;1.00;;;;;;5077128;28;20423;-85
2022/09/09 00:42:16;;;;;;;6.93;2.07;;;16.00;1.00;;;;;;5089774;28;20898;-86
2022/09/09 00:45:13;;;;;;;4.33;2.10;;;16.00;1.00;;;;;;5077872;28;20404;-85
2022/09/09 00:48:27;;;;;;;11.37;2.03;;;15.90;1.00;;;;;;5015983;28;20420;-86
2022/09/09 00:51:30;;;;;;;15.73;2.43;;;15.80;1.00;;;;;;4996012;28;20463;-86
2022/09/09 00:57:55;;;;;;;11.60;1.90;;;15.70;1.00;;;;;;4995491;28;20382;-86
2022/09/09 01:03:59;;;;;;;6.10;2.20;;;15.50;1.00;;;;;;4995443;28;20387;-78
2022/09/09 01:06:38;;;;;;;7.50;2.27;;;15.40;1.00;;;;;;4995265;28;20415;-77
2022/09/09 01:09:30;;;;;;;9.70;1.93;;;15.30;1.00;;;;;;4989644;28;20463;-79
2022/09/09 01:12:14;;;;;;;5.07;1.70;;;15.30;1.00;;;;;;4983383;28;20442;-78
2022/09/09 01:15:08;;;;;;;3.70;1.30;;;15.20;1.00;;;;;;4966158;28;20917;-80
2022/09/09 01:17:49;;;;;;;8.83;1.80;;;15.10;1.00;;;;;;4995001;28;20421;-85
2022/09/09 01:24:00;;;;;;;2.90;2.00;;;15.00;1.00;;;;;;4999000;28;20484;-86
2022/09/09 01:29:48;;;;;;;7.20;1.60;;;14.80;1.00;;;;;;5096108;28;20458;-87
2022/09/09 01:33:07;;;;;;;4.93;1.60;;;14.80;1.00;;;;;;5084401;28;20778;-86
2022/09/09 01:46:07;;;;;;;16.80;2.33;;;14.60;1.00;;;;;;5076652;28;20471;-86
2022/09/09 01:48:44;;;;;;;4.03;2.23;;;14.50;1.00;;;;;;5080659;28;20421;-78
2022/09/09 01:51:13;;;;;;;6.30;2.00;;;14.40;1.00;;;;;;5075332;28;20467;-78
2022/09/09 01:53:41;;;;;;;8.03;3.00;;;14.40;1.00;;;;;;5081155;28;20486;-78
2022/09/09 01:56:35;;;;;;;5.70;2.60;;;14.40;1.00;;;;;;5083295;28;20505;-77
2022/09/09 01:59:38;;;;;;;16.30;2.13;;;14.30;1.00;;;;;;5074173;28;20384;-77
2022/09/09 02:02:13;;;;;;;6.03;1.90;;;14.30;1.00;;;;;;5033371;28;20419;-77
2022/09/09 02:04:51;;;;;;;7.00;2.00;;;14.30;1.00;;;;;;5033915;28;20425;-78
2022/09/09 02:07:46;;;;;;;2.40;1.50;;;14.30;1.00;;;;;;5016489;28;20435;-77
2022/09/09 02:10:19;;;;;;;2.23;1.83;;;14.20;1.00;;;;;;5032163;28;20420;-77
2022/09/09 02:12:56;;;;;;;3.60;2.00;;;14.20;1.00;;;;;;5033082;28;20423;-78
2022/09/09 02:15:43;;;;;;;6.03;1.93;;;14.20;1.00;;;;;;5033691;28;20476;-78
2022/09/09 02:18:17;;;;;;;3.77;1.90;;;14.30;1.00;;;;;;5016701;28;20457;-78
2022/09/09 02:20:45;;;;;;;12.87;2.03;;;14.30;1.00;;;;;;5032665;28;20430;-77
2022/09/09 02:23:31;;;;;;;11.43;2.47;;;14.30;1.00;;;;;;5032782;28;20862;-77
2022/09/09 02:26:25;;;;;;;9.93;2.20;;;14.30;1.00;;;;;;5032948;28;20910;-78
2022/09/09 02:28:58;;;;;;;2.53;2.20;;;14.30;1.00;;;;;;5007549;28;20436;-77
2022/09/09 02:31:25;;;;;;;3.80;2.23;;;14.30;1.00;;;;;;5030438;28;21019;-78
2022/09/09 02:37:17;;;;;;;12.27;2.47;;;14.50;1.00;;;;;;5024393;28;20457;-86
2022/09/09 02:50:08;;;;;;;3.37;2.07;;;14.70;1.00;;;;;;5077085;28;20408;-86
2022/09/09 02:56:10;;;;;;;5.60;2.27;;;14.90;1.00;;;;;;5080286;28;20403;-86
2022/09/09 02:59:13;;;;;;;9.60;2.30;;;14.90;1.00;;;;;;5080325;28;20481;-87
2022/09/09 03:05:31;;;;;;;7.87;1.83;;;15.00;1.00;;;;;;5074726;28;20399;-86
2022/09/09 03:08:49;;;;;;;7.10;2.00;;;15.10;1.00;;;;;;5073686;28;20405;-86
2022/09/09 03:14:37;;;;;;;5.70;1.90;;;15.20;1.00;;;;;;5080884;28;20487;-86
2022/09/09 03:17:09;;;;;;;7.47;1.73;;;15.20;1.00;;;;;;5080310;28;20916;-87
2022/09/09 03:19:37;;;;;;;1.90;1.63;;;15.20;1.00;;;;;;5092562;28;20432;-78
2022/09/09 03:22:04;;;;;;;5.67;1.80;;;15.20;1.00;;;;;;5081089;28;20413;-78
2022/09/09 03:24:30;;;;;;;6.63;2.47;;;15.20;1.00;;;;;;5087340;28;20413;-77
2022/09/09 03:27:07;;;;;;;10.13;2.00;;;15.20;1.00;;;;;;5074503;28;20412;-78
2022/09/09 03:30:13;;;;;;;3.50;1.70;;;15.20;1.00;;;;;;5072434;28;20525;-78
2022/09/09 03:32:44;;;;;;;3.40;1.80;;;15.10;1.00;;;;;;5080751;28;20418;-78
2022/09/09 03:35:19;;;;;;;4.10;1.77;;;15.10;1.00;;;;;;5092649;28;20391;-78
2022/09/09 03:37:49;;;;;;;9.07;2.50;;;15.20;1.00;;;;;;5078001;28;20902;-78
2022/09/09 03:40:31;;;;;;;2.40;2.20;;;15.20;1.00;;;;;;5074732;28;20845;-78
2022/09/09 03:43:01;;;;;;;4.13;2.30;;;15.20;1.00;;;;;;5085387;28;20408;-78
2022/09/09 03:45:57;;;;;;;10.90;1.97;;;15.20;1.00;;;;;;5086951;28;20433;-78
2022/09/09 03:48:24;;;;;;;4.07;2.20;;;15.20;1.00;;;;;;5087244;28;21007;-77
2022/09/09 03:50:57;;;;;;;8.10;2.00;;;15.20;1.00;;;;;;5084152;28;20436;-78
2022/09/09 03:53:24;;;;;;;3.70;1.60;;;15.20;1.00;;;;;;5075895;28;20968;-79
2022/09/09 03:55:59;;;;;;;16.17;1.93;;;15.20;1.00;;;;;;5084775;28;20469;-78
2022/09/09 03:58:26;;;;;;;4.73;2.07;;;15.20;1.00;;;;;;5086712;28;20417;-77
2022/09/09 04:01:03;;;;;;;6.43;2.23;;;15.30;1.00;;;;;;5088046;28;20443;-78
2022/09/09 04:04:09;;;;;;;13.03;2.43;;;15.30;1.00;;;;;;5079463;28;20421;-78
2022/09/09 04:06:35;;;;;;;3.10;2.00;;;15.30;1.00;;;;;;5082708;28;20786;-78
2022/09/09 04:09:19;;;;;;;7.60;1.93;;;15.30;1.00;;;;;;5089613;28;20393;-78
2022/09/09 04:11:49;;;;;;;3.97;1.70;;;15.30;1.00;;;;;;5078102;28;20178;-80
2022/09/09 04:14:31;;;;;;;4.90;1.83;;;15.30;1.00;;;;;;5078334;28;20778;-80
2022/09/09 04:17:03;;;;;;;3.10;1.67;;;15.30;1.00;;;;;;5077062;28;20428;-80
2022/09/09 04:19:32;;;;;;;6.90;2.23;;;15.20;1.00;;;;;;5091019;28;20817;-80
2022/09/09 04:22:50;;;;;;;13.07;2.47;;;15.20;1.00;;;;;;5077203;28;20388;-81
2022/09/09 04:25:25;;;;;;;5.37;2.87;;;15.20;1.00;;;;;;5090007;28;20413;-80
2022/09/09 04:27:56;;;;;;;10.33;2.77;;;15.20;1.00;;;;;;5084748;28;20400;-79
2022/09/09 04:30:27;;;;;;;6.20;2.10;;;15.20;1.00;;;;;;5090461;28;20793;-79
2022/09/09 04:32:53;;;;;;;11.50;2.50;;;15.10;1.00;;;;;;5082776;28;20458;-80
2022/09/09 04:35:27;;;;;;;4.00;2.10;;;15.20;1.00;;;;;;5077271;28;20436;-80
2022/09/09 04:38:09;;;;;;;8.93;2.20;;;15.20;1.00;;;;;;5083090;28;20386;-80
2022/09/09 04:40:42;;;;;;;4.50;2.27;;;15.20;1.00;;;;;;5088361;28;20412;-79
2022/09/09 04:43:14;;;;;;;7.87;1.73;;;15.30;1.00;;;;;;5088822;28;20490;-80
2022/09/09 04:45:51;;;;;;;9.17;1.80;;;15.30;1.00;;;;;;5083896;28;20428;-80
2022/09/09 04:48:25;;;;;;;2.13;1.90;;;15.30;1.00;;;;;;5082997;28;20432;-79
2022/09/09 04:51:11;;;;;;;9.97;2.50;;;15.40;1.00;;;;;;5087425;28;20798;-80
2022/09/09 04:54:19;;;;;;;5.90;2.00;;;15.40;1.00;;;;;;5084756;28;20431;-79
2022/09/09 04:57:19;;;;;;;15.33;2.33;;;15.40;1.00;;;;;;5080422;28;20469;-79
2022/09/09 05:00:37;;;;;;;2.53;1.63;;;15.40;1.00;;;;;;5082803;28;20412;-79
2022/09/09 05:03:04;;;;;;;6.17;2.33;;;15.40;1.00;;;;;;5087831;28;20431;-80
2022/09/09 05:05:44;;;;;;;6.53;1.80;;;15.40;1.00;;;;;;5086819;28;20425;-79
2022/09/09 05:08:13;;;;;;;4.20;2.00;;;15.40;1.00;;;;;;5088768;28;20862;-79
2022/09/09 05:10:41;;;;;;;3.40;1.60;;;15.50;1.00;;;;;;5095805;28;20391;-79
2022/09/09 05:13:07;;;;;;;5.70;1.93;;;15.50;1.00;;;;;;5085922;28;20484;-78
2022/09/09 05:15:52;;;;;;;3.47;1.90;;;15.50;1.00;;;;;;5079172;28;21015;-77
2022/09/09 05:18:20;;;;;;;3.37;1.77;;;15.50;1.00;;;;;;5079426;28;20423;-77
2022/09/09 05:21:00;;;;;;;3.47;1.80;;;15.50;1.00;;;;;;5075167;28;20470;-78
2022/09/09 05:23:26;;;;;;;4.53;1.73;;;15.60;1.00;;;;;;5086645;28;20419;-77
2022/09/09 05:26:20;;;;;;;6.87;2.10;;;15.60;1.00;;;;;;5082591;28;20395;-77
2022/09/09 05:28:46;;;;;;;6.63;2.27;;;15.60;1.00;;;;;;5077852;28;20447;-77
2022/09/09 05:31:16;;;;;;;2.20;1.90;;;15.60;1.00;;;;;;5086504;28;20439;-78
2022/09/09 05:33:56;;;;;;;4.40;1.60;;;15.80;1.00;;;;;;5089356;28;20975;-77
2022/09/09 05:36:23;;;;;;;13.63;2.00;;;15.90;1.00;;;;;;5080986;28;20413;-78
2022/09/09 05:38:50;;;;;;;9.63;2.00;;;15.90;1.00;;;;;;5090643;28;20908;-78
2022/09/09 05:41:17;;;;;;;3.90;1.73;;;16.00;1.00;;;;;;5096234;28;20407;-78
2022/09/09 05:43:44;;;;;;;3.70;1.97;;;16.10;1.00;;;;;;5078175;28;20496;-78
2022/09/09 05:46:19;;;;;;;6.23;2.50;;;16.20;1.00;;;;;;5075566;28;20425;-77
2022/09/09 05:48:47;;;;;;;2.30;1.57;;;16.30;1.00;;;;;;5075656;28;20508;-77
2022/09/09 05:51:25;;;;;;;6.83;2.00;;;16.40;1.00;;;;;;5076564;28;20388;-85
2022/09/09 05:54:08;;;;;;;3.37;1.80;;;16.50;1.00;;;;;;5076189;28;20431;-86
2022/09/09 05:56:38;;;;;;;10.70;1.70;;;16.70;1.00;;;;;;5076007;28;20494;-85
2022/09/09 05:59:08;;;;;;;6.83;1.37;;;16.80;1.00;;;;;;5075907;28;20425;-85
2022/09/09 06:02:08;;;;;;;6.00;2.10;;;16.90;1.00;;;;;;5083235;28;20941;-85
2022/09/09 06:05:08;;;;;;;2.50;1.50;;;16.90;1.00;;;;;;5095498;28;20567;-85
2022/09/09 06:11:09;;;;;;;4.43;1.20;;;17.10;1.00;;;;;;5075929;28;20775;-85
2022/09/09 06:13:39;;;;;;;3.77;1.30;;;17.20;1.00;;;;;;5076059;28;20429;-85
2022/09/09 06:16:35;;;;;;;2.43;1.63;;;17.20;1.00;;;;;;5075500;28;20428;-85
2022/09/09 06:19:20;;;;;;;2.63;1.23;;;17.10;1.00;;;;;;5074617;28;20430;-85
2022/09/09 06:21:47;;;;;;;1.83;1.10;;;17.20;1.00;;;;;;5079888;28;20417;-77
2022/09/09 06:24:16;;;;;;;1.60;1.10;;;17.20;1.00;;;;;;5095154;28;20369;-77
2022/09/09 06:26:45;;;;;;;3.20;1.03;;;17.20;1.00;;;;;;5077388;28;20388;-78
2022/09/09 06:29:11;;;;;;;3.50;1.10;;;17.30;1.00;;;;;;5086205;28;20551;-77
2022/09/09 06:31:38;;;;;;;4.77;1.50;;;17.30;1.00;;;;;;5086677;28;20981;-77
2022/09/09 06:34:08;;;;;;;4.10;1.40;;;17.30;1.00;;;;;;5078005;28;20514;-78
2022/09/09 06:36:37;;;;;;;5.90;1.17;;;17.40;1.00;;;;;;5088394;28;20431;-77
2022/09/09 06:39:04;;;;;;;1.90;0.93;;;17.50;1.00;;;;;;5074788;28;20405;-77
2022/09/09 06:41:38;;;;;;;2.93;1.10;;;17.80;1.00;;;;;;5079262;28;20396;-77
2022/09/09 06:44:04;;;;;;;7.50;1.33;;;18.00;1.00;;;;;;5092146;28;20772;-77
2022/09/09 06:46:32;;;;;;;5.73;1.30;;;18.10;1.00;;;;;;5084356;28;20455;-78
2022/09/09 06:49:02;;;;;;;5.37;1.17;;;18.20;1.00;;;;;;5077343;28;20427;-77
2022/09/09 06:51:30;;;;;;;5.50;1.00;;;18.50;1.00;;;;;;5087104;28;20389;-76
2022/09/09 06:54:20;;;;;;;4.13;1.00;;;18.60;1.00;;;;;;5082354;28;20434;-77
2022/09/09 06:56:50;;;;;;;2.67;1.30;;;18.80;1.00;;;;;;5082757;28;20394;-77
2022/09/09 06:59:15;;;;;;;5.40;1.50;;;18.90;1.00;;;;;;5091611;28;20475;-77
2022/09/09 07:01:56;;;;;;;4.47;1.20;;;19.00;1.00;;;;;;5081489;28;20525;-76
2022/09/09 07:04:22;;;;;;;2.67;0.93;;;19.10;1.00;;;;;;5082199;28;20550;-77
2022/09/09 07:06:48;;;;;;;4.00;2.00;;;19.20;1.00;;;;;;5088201;28;20410;-77
2022/09/09 07:09:20;;;;;;;7.17;1.57;;;19.30;1.00;;;;;;5081901;28;20185;-77
2022/09/09 07:11:48;;;;;;;3.63;1.43;;;19.40;1.00;;;;;;5084425;28;20185;-77
2022/09/09 07:14:15;;;;;;;5.27;1.20;;;19.50;1.00;;;;;;5083392;28;20538;-76
2022/09/09 07:17:01;;;;;;;4.07;1.00;;;19.50;1.00;;;;;;5076695;28;20419;-76
2022/09/09 07:19:37;;;;;;;5.20;1.00;;;19.50;1.00;;;;;;5074102;28;20419;-77
2022/09/09 07:22:08;;;;;;;2.60;0.90;;;19.50;1.00;;;;;;5082609;28;20610;-84
2022/09/09 07:24:37;;;;;;;6.83;1.20;;;19.30;1.00;;;;;;5078461;28;20386;-84
2022/09/09 07:27:08;;;;;;;3.30;1.10;;;19.30;1.00;;;;;;5080600;28;20443;-84
2022/09/09 07:30:07;;;;;;;4.37;1.23;;;19.30;1.00;;;;;;5074043;28;20444;-83
2022/09/09 07:32:37;;;;;;;2.93;1.00;;;19.20;1.00;;;;;;5073988;28;20476;-84
2022/09/09 07:35:20;;;;;;;4.20;1.37;;;19.20;1.00;;;;;;5082647;28;21039;-84
2022/09/09 07:38:07;;;;;;;5.43;1.10;;;19.30;1.00;;;;;;5079588;28;20467;-84
2022/09/09 07:40:39;;;;;;;3.43;1.03;;;19.40;1.00;;;;;;5089150;28;20444;-83
2022/09/09 07:43:08;;;;;;;4.40;1.13;;;19.40;1.00;;;;;;5077760;28;20441;-84
2022/09/09 07:45:40;;;;;;;2.90;1.20;;;19.50;1.00;;;;;;5078041;28;20432;-84
2022/09/09 07:48:09;;;;;;;4.43;1.13;;;19.60;1.00;;;;;;5075075;28;20444;-84
2022/09/09 07:50:38;;;;;;;9.07;1.30;;;19.80;1.00;;;;;;5073986;28;20352;-84
2022/09/09 07:53:08;;;;;;;2.87;1.30;;;19.90;1.00;;;;;;5074047;28;20383;-84
2022/09/09 07:55:38;;;;;;;5.37;1.40;;;19.90;1.00;;;;;;5073683;28;20470;-83
2022/09/09 07:58:08;;;;;;;4.20;1.30;;;19.80;1.00;;;;;;5085003;28;20883;-84
2022/09/09 08:00:38;;;;;;;3.20;1.40;;;19.90;1.00;;;;;;5090330;28;20424;-84
2022/09/09 08:03:08;;;;;;;4.60;1.37;;;19.80;1.00;;;;;;5089485;28;20388;-83
2022/09/09 08:05:39;;;;;;;3.30;1.33;;;19.90;1.00;;;;;;5073807;28;20389;-84
2022/09/09 08:08:08;;;;;;;6.43;1.40;;;19.90;1.00;;;;;;5073955;28;20414;-84
2022/09/09 08:10:37;;;;;;;9.73;1.30;;;19.80;1.00;;;;;;5092228;28;20405;-83
2022/09/09 08:13:09;;;;;;;4.70;1.30;;;19.80;1.00;;;;;;5077124;28;20413;-83
2022/09/09 08:15:38;;;;;;;4.70;1.30;;;19.90;1.00;;;;;;5083513;28;20407;-83
2022/09/09 08:18:04;;;;;;;3.23;1.20;;;20.00;1.00;;;;;;5078662;28;20428;-84
2022/09/09 08:20:32;;;;;;;4.37;1.43;;;20.10;1.00;;;;;;5073666;28;20426;-83
2022/09/09 08:23:25;;;;;;;3.23;1.47;;;20.30;1.00;;;;;;5085827;28;20198;-84
2022/09/09 08:26:12;;;;;;;5.67;1.33;;;20.50;1.00;;;;;;5082003;28;20429;-84
2022/09/09 08:28:39;;;;;;;6.63;1.33;;;20.70;1.00;;;;;;5088564;28;20422;-82
2022/09/09 08:31:16;;;;;;;4.93;1.27;;;20.90;1.00;;;;;;5081153;28;20434;-83
2022/09/09 08:33:50;;;;;;;3.50;1.20;;;20.90;1.00;;;;;;5081871;28;20466;-83
2022/09/09 08:36:18;;;;;;;3.17;1.60;;;21.00;1.00;;;;;;5081060;28;20465;-83
2022/09/09 08:38:47;;;;;;;5.70;1.30;;;21.10;1.00;;;;;;5072337;28;20503;-83
2022/09/09 08:42:09;;;;;;;2.00;1.20;;;21.20;1.00;;;;;;5086970;28;20513;-83
2022/09/09 08:45:24;;;;;;;4.70;1.50;;;21.30;1.00;;;;;;5086026;28;20444;-83
2022/09/09 08:48:33;;;;;;;10.93;1.70;;;21.30;1.00;;;;;;5012419;28;20944;-83
2022/09/09 08:51:07;;;;;;;2.60;1.20;;;21.30;1.00;;;;;;4941206;29;20887;-83
2022/09/09 08:53:43;;;;;;;5.47;1.40;;;21.20;1.00;;;;;;4949918;29;20645;-76
2022/09/09 08:56:25;;;;;;;5.33;1.20;;;21.10;1.00;;;;;;4937429;29;20450;-76
2022/09/09 08:59:03;;;;;;;2.17;1.40;;;21.20;1.00;;;;;;4937008;29;20419;-75
2022/09/09 09:01:54;;;;;;;6.50;1.77;;;21.30;1.00;;;;;;4928261;29;20429;-76
2022/09/09 09:04:30;;;;;;;5.57;1.80;;;21.30;1.00;;;;;;4941984;29;20432;-75
2022/09/09 09:07:33;;;;;;;5.70;1.50;;;21.40;1.00;;;;;;4926768;29;20803;-81
2022/09/09 09:10:16;;;;;;;5.80;1.43;;;21.40;1.00;;;;;;4876407;29;20448;-82
2022/09/09 09:12:50;;;;;;;6.10;1.80;;;21.60;1.00;;;;;;4861777;29;20452;-82
2022/09/09 09:15:36;;;;;;;7.13;1.30;;;21.50;1.00;;;;;;4872489;29;20520;-82
2022/09/09 09:18:12;;;;;;;9.63;1.30;;;21.70;1.00;;;;;;4885377;29;20926;-82
2022/09/09 09:20:58;;;;;;;3.00;1.20;;;21.90;1.00;;;;;;4936685;29;20412;-82
2022/09/09 09:23:53;;;;;;;4.80;1.53;;;22.00;1.00;;;;;;4936825;29;20434;-82
2022/09/09 09:26:34;;;;;;;9.50;1.70;;;21.80;1.00;;;;;;4936465;29;20423;-82
2022/09/09 09:29:14;;;;;;;7.90;1.60;;;21.70;1.00;;;;;;4990784;28;20430;-81
2022/09/09 09:31:58;;;;;;;6.33;1.77;;;21.60;1.00;;;;;;4994460;28;20422;-82
2022/09/09 09:34:51;;;;;;;4.57;1.40;;;21.30;1.00;;;;;;4989163;28;21044;-82
2022/09/09 09:37:30;;;;;;;6.63;1.47;;;21.20;1.00;;;;;;4986828;28;20434;-76
2022/09/09 09:39:56;;;;;;;9.70;1.67;;;21.20;1.00;;;;;;4981349;28;20511;-75
2022/09/09 09:42:22;;;;;;;4.50;1.60;;;21.20;1.00;;;;;;4977796;28;20438;-76
2022/09/09 09:44:48;;;;;;;5.10;1.30;;;21.00;1.00;;;;;;5007195;28;20462;-75
2022/09/09 09:47:21;;;;;;;4.40;1.60;;;21.00;1.00;;;;;;5082020;28;20528;-76
2022/09/09 09:50:03;;;;;;;6.30;1.60;;;21.10;1.00;;;;;;5094881;28;20589;-75
2022/09/09 09:53:13;;;;;;;14.23;1.83;;;20.90;1.00;;;;;;5091122;28;20900;-82
2022/09/09 09:56:09;;;;;;;9.07;2.30;;;20.80;1.00;;;;;;5080019;28;20507;-82
2022/09/09 09:59:13;;;;;;;7.10;1.87;;;20.70;1.00;;;;;;5075153;28;20826;-82
2022/09/09 10:02:13;;;;;;;7.93;1.93;;;20.60;1.00;;;;;;5088020;28;20409;-82
2022/09/09 10:04:39;;;;;;;7.20;2.00;;;20.70;1.00;;;;;;5081103;28;20414;-83
2022/09/09 10:07:26;;;;;;;9.97;3.00;;;20.70;1.00;;;;;;5078929;28;20427;-83
2022/09/09 10:09:57;;;;;;;11.87;2.53;;;20.70;1.00;;;;;;5094919;28;20171;-82
2022/09/09 10:12:35;;;;;;;6.20;1.70;;;20.70;1.00;;;;;;5095453;28;20891;-83
2022/09/09 10:15:19;;;;;;;6.87;1.80;;;20.80;1.00;;;;;;5079675;28;20447;-82
2022/09/09 10:18:22;;;;;;;7.50;1.77;;;20.80;1.00;;;;;;5076555;28;20457;-83
2022/09/09 10:21:25;;;;;;;13.50;1.73;;;21.20;1.00;;;;;;5085212;28;20405;-83
2022/09/09 10:24:09;;;;;;;9.53;1.70;;;21.60;1.00;;;;;;5075375;28;20435;-83
2022/09/09 10:30:27;;;;;;;9.67;2.03;;;22.20;1.00;;;;;;5088286;28;20414;-83
2022/09/09 10:36:28;;;;;;;8.70;1.77;;;22.90;1.00;;;;;;5090739;28;20496;-83
2022/09/09 10:39:05;;;;;;;9.97;1.80;;;23.30;1.00;;;;;;5087246;28;20495;-83
2022/09/09 10:42:13;;;;;;;3.87;1.40;;;23.00;1.00;;;;;;5088126;28;20409;-83
2022/09/09 10:45:25;;;;;;;3.60;0.93;;;23.10;1.00;;;;;;5088013;28;20405;-82
2022/09/09 10:48:10;;;;;;;4.60;1.40;;;22.90;1.00;;;;;;5079797;28;20425;-81
2022/09/09 10:51:14;;;;;;;9.97;1.63;;;22.70;1.00;;;;;;5079852;28;20430;-79
2022/09/09 10:54:10;;;;;;;9.57;1.40;;;22.50;1.00;;;;;;5087969;28;20504;-78
2022/09/09 10:56:36;;;;;;;7.07;1.40;;;22.10;1.00;;;;;;5083812;28;20415;-77
2022/09/09 10:59:17;;;;;;;7.10;1.30;;;21.90;1.00;;;;;;5080463;28;20450;-76
2022/09/09 11:02:22;;;;;;;6.57;1.63;;;21.70;1.00;;;;;;5087044;28;20414;-77
2022/09/09 11:05:14;;;;;;;5.80;1.50;;;21.70;1.00;;;;;;5083250;28;20446;-78
2022/09/09 11:07:47;;;;;;;6.00;1.40;;;21.90;1.00;;;;;;5074826;28;20404;-76
2022/09/09 11:10:24;;;;;;;5.40;2.00;;;21.90;1.00;;;;;;5079765;28;20434;-79
2022/09/09 11:13:20;;;;;;;6.00;1.30;;;21.90;1.00;;;;;;5083284;28;20390;-83
2022/09/09 11:15:51;;;;;;;4.77;1.50;;;21.90;1.00;;;;;;5075585;28;20481;-79
2022/09/09 11:18:22;;;;;;;8.50;1.43;;;22.10;1.00;;;;;;5076130;28;20911;-79
2022/09/09 11:20:55;;;;;;;7.37;1.23;;;22.30;1.00;;;;;;5083062;28;20466;-79
2022/09/09 11:23:39;;;;;;;5.77;1.10;;;22.50;1.00;;;;;;5085922;28;20430;-76
2022/09/09 11:26:45;;;;;;;2.70;1.10;;;22.40;1.00;;;;;;5073901;28;20395;-76
2022/09/09 11:29:50;;;;;;;5.20;1.33;;;22.60;1.00;;;;;;5088247;28;20427;-76
2022/09/09 11:32:34;;;;;;;3.43;1.40;;;22.70;1.00;;;;;;5083840;28;20432;-76
2022/09/09 11:35:21;;;;;;;2.83;1.00;;;22.80;1.00;;;;;;5076608;28;20478;-77
2022/09/09 11:38:15;;;;;;;5.73;1.37;;;23.00;1.00;;;;;;5087501;28;20756;-76
2022/09/09 11:41:09;;;;;;;7.33;1.50;;;23.30;1.00;;;;;;5083587;28;20399;-79
2022/09/09 11:43:54;;;;;;;2.80;1.33;;;23.70;1.00;;;;;;5082303;28;20486;-80
2022/09/09 11:46:38;;;;;;;3.27;1.00;;;23.90;1.00;;;;;;5080213;28;20880;-80
2022/09/09 11:49:40;;;;;;;2.60;1.30;;;24.00;1.00;;;;;;5083508;28;20509;-78
2022/09/09 11:52:42;;;;;;;2.07;1.20;;;24.20;1.00;;;;;;5076409;28;20414;-79
2022/09/09 11:55:21;;;;;;;5.47;1.00;;;24.10;1.00;;;;;;5011783;28;20969;-79
2022/09/09 11:58:16;;;;;;;7.30;1.30;;;23.70;1.00;;;;;;5011740;28;20490;-80
2022/09/09 12:00:50;;;;;;;2.53;0.90;;;23.30;1.00;;;;;;4991664;28;20425;-81
2022/09/09 12:03:45;;;;;;;3.40;1.10;;;23.00;1.00;;;;;;4992006;28;20401;-80
2022/09/09 12:06:19;;;;;;;2.73;1.10;;;22.70;1.00;;;;;;4975726;28;20805;-78
2022/09/09 12:08:52;;;;;;;2.67;1.10;;;22.70;1.00;;;;;;4982391;28;20507;-77
2022/09/09 12:11:28;;;;;;;3.23;0.80;;;22.70;1.00;;;;;;4981487;28;20420;-76
2022/09/09 12:14:02;;;;;;;2.00;0.83;;;22.40;1.00;;;;;;4979071;28;20957;-76
2022/09/09 12:16:38;;;;;;;5.40;1.00;;;22.50;1.00;;;;;;4992003;28;20456;-76
2022/09/09 12:19:24;;;;;;;5.43;1.20;;;22.70;1.00;;;;;;4990639;28;20454;-76
2022/09/09 12:22:02;;;;;;;6.00;1.00;;;22.60;1.00;;;;;;4975454;28;20877;-77
2022/09/09 12:24:32;;;;;;;2.83;0.93;;;22.60;1.00;;;;;;4995821;28;20447;-80
2022/09/09 12:27:17;;;;;;;4.67;1.10;;;22.60;1.00;;;;;;4979291;28;20429;-79
2022/09/09 12:30:09;;;;;;;3.53;0.90;;;22.80;1.00;;;;;;4991023;28;20825;-79
2022/09/09 12:32:35;;;;;;;10.87;3.13;;;22.80;1.00;;;;;;5050164;28;20456;-79
2022/09/09 12:35:08;;;;;;;4.40;1.00;;;22.60;1.00;;;;;;5068626;28;20465;-78
2022/09/09 12:37:46;;;;;;;3.77;1.03;;;22.40;1.00;;;;;;5081636;28;20192;-79
2022/09/09 12:40:34;;;;;;;3.40;1.00;;;22.40;1.00;;;;;;5079290;28;20458;-79
2022/09/09 12:43:28;;;;;;;5.67;1.30;;;22.20;1.00;;;;;;5092134;28;20962;-80
2022/09/09 12:46:02;;;;;;;19.20;3.20;;;22.20;1.00;;;;;;5080149;28;20423;-80
2022/09/09 12:52:16;;;;;;;6.60;1.23;;;21.30;1.00;;;;;;5092917;28;20797;-80
2022/09/09 12:55:02;;;;;;;11.07;1.47;;;20.60;1.00;;;;;;5078012;28;20449;-79
2022/09/09 12:57:36;;;;;;;4.00;1.07;;;20.50;1.00;;;;;;5090750;28;20454;-79
2022/09/09 13:03:24;;;;;;;9.13;1.57;;;20.50;1.00;;;;;;5084290;28;20403;-88
2022/09/09 13:06:17;;;;;;;5.43;1.40;;;20.50;1.00;;;;;;5080175;28;20467;-79
2022/09/09 13:08:43;;;;;;;6.07;2.00;;;20.60;1.00;;;;;;5082282;28;20468;-80
2022/09/09 13:11:34;;;;;;;7.77;1.63;;;20.70;1.00;;;;;;5092254;28;20383;-78
2022/09/09 13:14:29;;;;;;;6.17;0.90;;;20.80;1.00;;;;;;5079420;28;20419;-78
2022/09/09 13:17:28;;;;;;;5.63;1.50;;;20.90;1.00;;;;;;5080384;28;20456;-77
2022/09/09 13:19:56;;;;;;;4.10;1.20;;;20.90;1.00;;;;;;5084388;28;20530;-77
2022/09/09 13:22:35;;;;;;;10.10;1.20;;;20.90;1.00;;;;;;5076019;28;20437;-77
2022/09/09 13:25:25;;;;;;;4.43;1.40;;;20.30;1.00;;;;;;5090805;28;20778;-77
2022/09/09 13:28:27;;;;;;;3.63;0.80;;;20.20;1.00;;;;;;5076002;28;20471;-77
2022/09/09 13:31:01;;;;;;;5.07;0.90;;;19.90;1.00;;;;;;5094301;28;20423;-77
2022/09/09 13:33:33;;;;;;;2.43;0.80;;;19.70;1.00;;;;;;5095032;28;20446;-77
2022/09/09 13:36:04;;;;;;;2.80;0.80;;;19.60;1.00;;;;;;5085837;28;20458;-77
2022/09/09 13:38:52;;;;;;;3.63;0.90;;;19.40;1.00;;;;;;5081127;28;20465;-77
2022/09/09 13:41:44;;;;;;;2.27;0.90;;;19.30;1.00;;;;;;5014310;28;20459;-79
2022/09/09 13:44:31;;;;;;;2.33;0.90;;;19.50;1.00;;;;;;5013835;28;20427;-79
2022/09/09 13:47:31;;;;;;;1.47;0.97;;;19.70;1.00;;;;;;5014034;28;20930;-79
2022/09/09 13:50:29;;;;;;;5.03;0.87;;;19.90;1.00;;;;;;4994195;28;20544;-79
2022/09/09 13:52:58;;;;;;;1.60;0.70;;;20.00;1.00;;;;;;4974635;28;20438;-80
2022/09/09 13:55:39;;;;;;;2.20;0.70;;;20.20;1.00;;;;;;4958825;28;20454;-79
2022/09/09 14:01:27;;;;;;;1.23;0.50;;;20.50;1.00;;;;;;4963280;28;20464;-79
2022/09/09 14:03:53;;;;;;;3.80;0.97;;;20.50;1.00;;;;;;4955709;28;20438;-79
2022/09/09 14:06:39;;;;;;;0.60;0.50;;;20.60;1.00;;;;;;4963284;28;20894;-80
2022/09/09 14:09:16;;;;;;;0.93;0.57;;;20.70;1.00;;;;;;4974148;28;20437;-80
2022/09/09 14:11:45;;;;;;;0.90;0.60;;;20.80;1.00;;;;;;4974523;28;20453;-79
2022/09/09 14:14:38;;;;;;;2.10;0.60;;;20.80;1.00;;;;;;4958092;28;20490;-79
2022/09/09 14:17:20;;;;;;;3.37;0.63;;;20.80;1.00;;;;;;4971960;28;20900;-80
2022/09/09 14:19:56;;;;;;;1.30;0.50;;;20.60;1.00;;;;;;4977379;28;20940;-79
2022/09/09 14:22:26;;;;;;;1.53;0.60;;;20.40;1.00;;;;;;5005853;28;20978;-79
2022/09/09 14:24:57;;;;;;;2.70;0.90;;;20.50;1.00;;;;;;5012989;28;20427;-79
2022/09/09 14:27:23;;;;;;;1.57;0.87;;;20.40;1.00;;;;;;5012973;28;20437;-77
2022/09/09 14:29:57;;;;;;;6.30;0.80;;;20.60;1.00;;;;;;5058745;28;20427;-77
2022/09/09 14:32:26;;;;;;;1.80;0.70;;;20.70;1.00;;;;;;5084901;28;20175;-77
2022/09/09 14:38:14;;;;;;;1.70;0.83;;;21.10;1.00;;;;;;5088638;28;20428;-85
2022/09/09 14:40:46;;;;;;;1.10;0.60;;;21.10;1.00;;;;;;5085032;28;20909;-89
2022/09/09 14:43:38;;;;;;;1.23;0.60;;;21.10;1.00;;;;;;5067518;28;20187;-85
2022/09/09 14:49:38;;;;;;;2.83;0.80;;;21.40;1.00;;;;;;5080930;28;20488;-79
2022/09/09 14:52:25;;;;;;;3.83;0.67;;;21.50;1.00;;;;;;5075337;28;20545;-81
2022/09/09 14:55:02;;;;;;;1.10;0.57;;;21.80;1.00;;;;;;5074428;28;20454;-79
2022/09/09 14:57:32;;;;;;;5.23;0.73;;;21.90;1.00;;;;;;5074760;28;20459;-75
2022/09/09 15:00:03;;;;;;;1.47;0.60;;;22.10;1.00;;;;;;5084049;28;20486;-77
2022/09/09 15:02:38;;;;;;;0.60;0.60;;;22.10;1.00;;;;;;5082624;28;20420;-77
2022/09/09 15:05:08;;;;;;;1.73;0.87;;;21.80;1.00;;;;;;5078969;28;20478;-77
2022/09/09 15:07:38;;;;;;;1.93;0.50;;;21.90;1.00;;;;;;5080583;28;20506;-77
2022/09/09 15:10:04;;;;;;;0.70;0.60;;;21.90;1.00;;;;;;5073757;28;20785;-76
2022/09/09 15:12:30;;;;;;;0.83;0.50;;;21.90;1.00;;;;;;5074789;28;20724;-76
2022/09/09 15:14:56;;;;;;;1.43;0.50;;;21.90;1.00;;;;;;5080239;28;20454;-77
2022/09/09 15:17:26;;;;;;;1.83;0.77;;;21.80;1.00;;;;;;5074457;28;20530;-77
2022/09/09 15:19:53;;;;;;;1.10;0.53;;;21.90;1.00;;;;;;5088265;28;20228;-76
2022/09/09 15:22:26;;;;;;;3.37;0.63;;;21.90;1.00;;;;;;5094333;28;20395;-76